sensor_id;sensor_type;location;lat;lon;timestamp;pressure;altitude;pressure_sealevel;temperature;humidity
7990;BME280;4040;42.848;23.034;2023-04-28T00:03:30;95149.00;;;4.04;100.00
7990;BME280;4040;42.848;23.034;2023-04-28T00:13:42;95145.28;;;3.90;100.00
7990;BME280;4040;42.848;23.034;2023-04-28T00:19:30;95146.53;;;3.96;100.00
7990;BME280;4040;42.848;23.034;2023-04-28T00:25:19;95153.63;;;4.07;100.00
7990;BME280;4040;42.848;23.034;2023-04-28T00:31:13;95149.22;;;4.15;100.00
7990;BME280;4040;42.848;23.034;2023-04-28T00:37:02;95151.47;;;3.94;100.00
7990;BME280;4040;42.848;23.034;2023-04-28T00:43:01;95160.88;;;3.53;100.00
7990;BME280;4040;42.848;23.034;2023-04-28T00:48:52;95163.94;;;3.21;100.00
7990;BME280;4040;42.848;23.034;2023-04-28T00:54:41;95154.53;;;3.08;100.00
7990;BME280;4040;42.848;23.034;2023-04-28T01:00:30;95160.69;;;3.12;100.00
7990;BME280;4040;42.848;23.034;2023-04-28T01:06:20;95165.69;;;2.82;100.00
7990;BME280;4040;42.848;23.034;2023-04-28T01:16:32;95167.88;;;2.49;100.00
7990;BME280;4040;42.848;23.034;2023-04-28T01:22:25;95172.50;;;2.37;100.00
7990;BME280;4040;42.848;23.034;2023-04-28T01:28:15;95168.53;;;2.31;100.00
7990;BME280;4040;42.848;23.034;2023-04-28T01:34:03;95176.09;;;2.02;100.00
7990;BME280;4040;42.848;23.034;2023-04-28T01:39:52;95175.53;;;2.08;100.00
7990;BME280;4040;42.848;23.034;2023-04-28T01:45:42;95181.63;;;2.09;100.00
7990;BME280;4040;42.848;23.034;2023-04-28T01:51:31;95184.41;;;2.00;100.00
7990;BME280;4040;42.848;23.034;2023-04-28T01:57:20;95178.66;;;1.98;100.00
7990;BME280;4040;42.848;23.034;2023-04-28T02:03:11;95166.66;;;1.77;100.00
7990;BME280;4040;42.848;23.034;2023-04-28T02:08:59;95184.22;;;1.93;100.00
7990;BME280;4040;42.848;23.034;2023-04-28T02:19:11;95183.44;;;2.20;100.00
7990;BME280;4040;42.848;23.034;2023-04-28T02:25:00;95190.13;;;2.14;100.00
7990;BME280;4040;42.848;23.034;2023-04-28T02:30:49;95191.09;;;1.82;100.00
7990;BME280;4040;42.848;23.034;2023-04-28T02:36:39;95195.00;;;1.73;100.00
7990;BME280;4040;42.848;23.034;2023-04-28T02:42:28;95197.31;;;1.74;100.00
7990;BME280;4040;42.848;23.034;2023-04-28T02:48:17;95203.91;;;1.92;100.00
7990;BME280;4040;42.848;23.034;2023-04-28T02:54:07;95212.78;;;1.84;100.00
7990;BME280;4040;42.848;23.034;2023-04-28T02:59:56;95222.34;;;1.73;100.00
7990;BME280;4040;42.848;23.034;2023-04-28T03:05:45;95222.34;;;1.73;100.00
7990;BME280;4040;42.848;23.034;2023-04-28T03:11:35;95220.47;;;1.62;100.00
7990;BME280;4040;42.848;23.034;2023-04-28T03:21:45;95234.97;;;1.64;100.00
7990;BME280;4040;42.848;23.034;2023-04-28T03:27:36;95244.59;;;1.57;100.00
7990;BME280;4040;42.848;23.034;2023-04-28T03:33:24;95250.97;;;1.56;100.00
7990;BME280;4040;42.848;23.034;2023-04-28T03:39:13;95268.81;;;1.55;100.00
7990;BME280;4040;42.848;23.034;2023-04-28T03:45:03;95274.50;;;1.81;100.00
7990;BME280;4040;42.848;23.034;2023-04-28T03:50:52;95278.06;;;1.85;100.00
7990;BME280;4040;42.848;23.034;2023-04-28T03:56:41;95285.78;;;1.90;100.00
7990;BME280;4040;42.848;23.034;2023-04-28T04:02:31;95295.09;;;1.96;100.00
7990;BME280;4040;42.848;23.034;2023-04-28T04:08:19;95290.19;;;2.10;100.00
7990;BME280;4040;42.848;23.034;2023-04-28T04:14:08;95296.88;;;2.32;100.00
7990;BME280;4040;42.848;23.034;2023-04-28T04:24:20;95293.97;;;2.64;100.00
7990;BME280;4040;42.848;23.034;2023-04-28T04:30:09;95302.09;;;2.83;100.00
7990;BME280;4040;42.848;23.034;2023-04-28T04:35:58;95302.34;;;3.21;100.00
7990;BME280;4040;42.848;23.034;2023-04-28T04:41:49;95307.31;;;3.69;100.00
7990;BME280;4040;42.848;23.034;2023-04-28T04:47:37;95304.66;;;4.94;100.00
7990;BME280;4040;42.848;23.034;2023-04-28T04:53:26;95313.13;;;6.38;100.00
7990;BME280;4040;42.848;23.034;2023-04-28T04:59:16;95315.50;;;7.06;98.67
7990;BME280;4040;42.848;23.034;2023-04-28T05:05:05;95314.69;;;7.78;87.20
7990;BME280;4040;42.848;23.034;2023-04-28T05:10:54;95318.41;;;8.71;74.70
7990;BME280;4040;42.848;23.034;2023-04-28T05:16:45;95320.28;;;10.22;66.76
7990;BME280;4040;42.848;23.034;2023-04-28T05:26:57;95292.16;;;11.40;59.18
7990;BME280;4040;42.848;23.034;2023-04-28T05:32:47;95313.38;;;12.80;55.10
7990;BME280;4040;42.848;23.034;2023-04-28T05:38:36;95312.31;;;13.68;49.93
7990;BME280;4040;42.848;23.034;2023-04-28T05:44:25;95312.47;;;13.84;49.47
7990;BME280;4040;42.848;23.034;2023-04-28T05:50:15;95317.53;;;13.82;48.01
7990;BME280;4040;42.848;23.034;2023-04-28T05:56:05;95317.13;;;15.18;45.30
7990;BME280;4040;42.848;23.034;2023-04-28T06:01:53;95315.66;;;14.94;43.80
7990;BME280;4040;42.848;23.034;2023-04-28T06:07:43;95315.94;;;14.34;45.46
7990;BME280;4040;42.848;23.034;2023-04-28T06:13:32;95308.22;;;15.17;43.57
7990;BME280;4040;42.848;23.034;2023-04-28T06:19:21;95311.47;;;14.47;43.10
7990;BME280;4040;42.848;23.034;2023-04-28T06:29:33;95304.66;;;14.81;42.04
7990;BME280;4040;42.848;23.034;2023-04-28T06:35:21;95313.41;;;15.66;41.94
7990;BME280;4040;42.848;23.034;2023-04-28T06:41:10;95303.38;;;16.91;36.76
7990;BME280;4040;42.848;23.034;2023-04-28T06:47:01;95301.59;;;16.40;38.52
7990;BME280;4040;42.848;23.034;2023-04-28T06:52:50;95303.41;;;17.73;36.86
7990;BME280;4040;42.848;23.034;2023-04-28T06:58:39;95297.38;;;17.53;36.58
7990;BME280;4040;42.848;23.034;2023-04-28T07:04:29;95294.97;;;17.43;36.44
7990;BME280;4040;42.848;23.034;2023-04-28T07:10:18;95307.94;;;16.94;36.87
7990;BME280;4040;42.848;23.034;2023-04-28T07:16:07;95297.31;;;17.94;34.99
7990;BME280;4040;42.848;23.034;2023-04-28T07:21:57;95301.00;;;20.22;32.30
7990;BME280;4040;42.848;23.034;2023-04-28T07:32:08;95295.38;;;20.25;30.22
7990;BME280;4040;42.848;23.034;2023-04-28T07:37:59;95293.38;;;19.56;29.99
7990;BME280;4040;42.848;23.034;2023-04-28T07:43:47;95284.31;;;20.29;29.38
7990;BME280;4040;42.848;23.034;2023-04-28T07:49:36;95298.75;;;19.99;29.76
7990;BME280;4040;42.848;23.034;2023-04-28T07:55:26;95292.63;;;19.95;29.32
7990;BME280;4040;42.848;23.034;2023-04-28T08:01:15;95299.28;;;20.64;28.49
7990;BME280;4040;42.848;23.034;2023-04-28T08:07:04;95290.66;;;21.01;28.70
7990;BME280;4040;42.848;23.034;2023-04-28T08:12:54;95298.25;;;21.24;28.99
7990;BME280;4040;42.848;23.034;2023-04-28T08:18:43;95283.28;;;20.53;28.00
7990;BME280;4040;42.848;23.034;2023-04-28T08:24:32;95300.06;;;22.13;27.03
7990;BME280;4040;42.848;23.034;2023-04-28T08:34:45;95295.97;;;23.12;25.66
7990;BME280;4040;42.848;23.034;2023-04-28T08:40:34;95284.63;;;24.83;23.70
7990;BME280;4040;42.848;23.034;2023-04-28T08:46:26;95261.59;;;22.22;24.90
7990;BME280;4040;42.848;23.034;2023-04-28T08:52:17;95289.00;;;22.87;26.15
7990;BME280;4040;42.848;23.034;2023-04-28T08:58:08;95272.59;;;22.55;24.92
7990;BME280;4040;42.848;23.034;2023-04-28T09:04:00;95232.13;;;24.18;23.36
7990;BME280;4040;42.848;23.034;2023-04-28T09:10:14;95268.19;;;25.85;22.95
7990;BME280;4040;42.848;23.034;2023-04-28T09:16:04;95258.94;;;25.32;22.53
7990;BME280;4040;42.848;23.034;2023-04-28T09:21:54;95257.28;;;23.82;24.07
7990;BME280;4040;42.848;23.034;2023-04-28T09:27:44;95226.41;;;24.56;24.12
7990;BME280;4040;42.848;23.034;2023-04-28T09:37:57;95232.63;;;24.71;24.49
7990;BME280;4040;42.848;23.034;2023-04-28T09:43:47;95227.44;;;25.95;21.24
7990;BME280;4040;42.848;23.034;2023-04-28T09:49:52;95190.63;;;25.78;21.69
7990;BME280;4040;42.848;23.034;2023-04-28T09:55:43;95221.16;;;24.38;24.01
7990;BME280;4040;42.848;23.034;2023-04-28T10:01:37;95208.31;;;24.15;23.04
7990;BME280;4040;42.848;23.034;2023-04-28T10:07:26;95190.16;;;25.23;24.28
7990;BME280;4040;42.848;23.034;2023-04-28T10:13:16;95191.94;;;25.06;22.58
7990;BME280;4040;42.848;23.034;2023-04-28T10:19:08;95181.00;;;25.37;22.45
7990;BME280;4040;42.848;23.034;2023-04-28T10:25:07;95185.59;;;27.07;21.64
7990;BME280;4040;42.848;23.034;2023-04-28T10:31:10;95173.09;;;24.19;24.59
7990;BME280;4040;42.848;23.034;2023-04-28T10:37:00;95169.44;;;24.47;23.78
7990;BME280;4040;42.848;23.034;2023-04-28T10:42:53;95164.19;;;23.75;24.19
7990;BME280;4040;42.848;23.034;2023-04-28T10:49:03;95123.19;;;24.97;23.95
7990;BME280;4040;42.848;23.034;2023-04-28T11:01:26;95153.69;;;17.57;31.22
7990;BME280;4040;42.848;23.034;2023-04-28T11:07:17;95138.84;;;17.08;33.89
7990;BME280;4040;42.848;23.034;2023-04-28T11:13:24;95134.28;;;17.05;33.19
7990;BME280;4040;42.848;23.034;2023-04-28T11:19:16;95132.09;;;17.25;34.73
7990;BME280;4040;42.848;23.034;2023-04-28T11:25:15;95092.81;;;17.14;31.70
7990;BME280;4040;42.848;23.034;2023-04-28T11:31:10;95110.44;;;17.09;33.13
7990;BME280;4040;42.848;23.034;2023-04-28T11:41:23;95100.09;;;17.04;33.17
7990;BME280;4040;42.848;23.034;2023-04-28T11:47:12;95099.88;;;16.86;33.89
7990;BME280;4040;42.848;23.034;2023-04-28T11:53:01;95090.09;;;17.14;33.67
7990;BME280;4040;42.848;23.034;2023-04-28T11:59:01;95084.00;;;16.97;32.50
7990;BME280;4040;42.848;23.034;2023-04-28T12:04:50;95083.22;;;16.97;33.21
7990;BME280;4040;42.848;23.034;2023-04-28T12:10:39;95083.66;;;16.83;33.27
7990;BME280;4040;42.848;23.034;2023-04-28T12:16:42;95077.66;;;17.00;33.09
7990;BME280;4040;42.848;23.034;2023-04-28T12:22:42;95070.91;;;16.92;32.64
7990;BME280;4040;42.848;23.034;2023-04-28T12:28:38;95061.03;;;16.98;31.62
7990;BME280;4040;42.848;23.034;2023-04-28T12:34:29;95053.63;;;16.86;32.41
7990;BME280;4040;42.848;23.034;2023-04-28T12:36:58;95054.16;;;16.81;32.03
7990;BME280;4040;42.848;23.034;2023-04-28T12:42:47;95053.19;;;17.00;31.67
7990;BME280;4040;42.848;23.034;2023-04-28T12:48:36;95044.59;;;16.89;32.38
7990;BME280;4040;42.848;23.034;2023-04-28T12:54:27;95041.06;;;17.51;32.87
7990;BME280;4040;42.848;23.034;2023-04-28T13:00:15;95042.19;;;16.91;32.64
7990;BME280;4040;42.848;23.034;2023-04-28T13:06:07;95019.88;;;16.71;31.22
7990;BME280;4040;42.848;23.034;2023-04-28T13:11:58;95034.97;;;17.22;31.85
7990;BME280;4040;42.848;23.034;2023-04-28T13:17:49;95030.63;;;17.25;31.16
7990;BME280;4040;42.848;23.034;2023-04-28T13:23:38;95021.03;;;17.45;31.36
7990;BME280;4040;42.848;23.034;2023-04-28T13:29:28;95019.06;;;17.33;31.38
7990;BME280;4040;42.848;23.034;2023-04-28T13:35:17;95013.09;;;17.38;32.09
7990;BME280;4040;42.848;23.034;2023-04-28T13:41:06;95005.69;;;17.39;31.75
7990;BME280;4040;42.848;23.034;2023-04-28T13:46:56;95002.78;;;17.08;32.60
7990;BME280;4040;42.848;23.034;2023-04-28T13:52:45;94995.88;;;17.29;33.11
7990;BME280;4040;42.848;23.034;2023-04-28T13:58:34;94978.97;;;16.87;32.78
7990;BME280;4040;42.848;23.034;2023-04-28T14:04:24;95001.38;;;17.16;31.60
7990;BME280;4040;42.848;23.034;2023-04-28T14:10:13;94994.56;;;17.33;33.14
7990;BME280;4040;42.848;23.034;2023-04-28T14:16:02;94966.00;;;16.91;32.23
7990;BME280;4040;42.848;23.034;2023-04-28T14:21:52;94997.91;;;16.91;33.63
7990;BME280;4040;42.848;23.034;2023-04-28T14:27:41;94978.09;;;16.90;32.36
7990;BME280;4040;42.848;23.034;2023-04-28T14:33:30;94984.47;;;17.09;32.80
7990;BME280;4040;42.848;23.034;2023-04-28T14:43:41;94973.66;;;16.71;33.06
7990;BME280;4040;42.848;23.034;2023-04-28T14:49:30;94967.66;;;16.76;32.81
7990;BME280;4040;42.848;23.034;2023-04-28T14:55:20;94977.19;;;17.18;33.11
7990;BME280;4040;42.848;23.034;2023-04-28T15:01:10;94971.91;;;16.77;31.53
7990;BME280;4040;42.848;23.034;2023-04-28T15:06:59;94974.28;;;16.50;32.01
7990;BME280;4040;42.848;23.034;2023-04-28T15:12:48;94975.81;;;16.51;32.82
7990;BME280;4040;42.848;23.034;2023-04-28T15:18:38;94980.72;;;16.44;33.11
7990;BME280;4040;42.848;23.034;2023-04-28T15:24:26;94990.59;;;16.50;33.92
7990;BME280;4040;42.848;23.034;2023-04-28T15:30:15;94979.25;;;16.14;34.85
7990;BME280;4040;42.848;23.034;2023-04-28T15:36:06;94977.13;;;15.93;33.29
7990;BME280;4040;42.848;23.034;2023-04-28T15:46:17;94967.88;;;15.91;33.31
7990;BME280;4040;42.848;23.034;2023-04-28T15:52:07;94965.81;;;15.82;33.97
7990;BME280;4040;42.848;23.034;2023-04-28T15:57:56;94963.28;;;15.75;33.10
7990;BME280;4040;42.848;23.034;2023-04-28T16:03:45;94952.13;;;15.57;32.69
7990;BME280;4040;42.848;23.034;2023-04-28T16:09:35;94955.66;;;15.42;34.41
7990;BME280;4040;42.848;23.034;2023-04-28T16:15:23;94951.97;;;15.04;34.55
7990;BME280;4040;42.848;23.034;2023-04-28T16:21:12;94960.13;;;15.04;34.61
7990;BME280;4040;42.848;23.034;2023-04-28T16:27:04;94959.38;;;14.88;34.06
7990;BME280;4040;42.848;23.034;2023-04-28T16:32:53;94954.44;;;14.67;34.57
7990;BME280;4040;42.848;23.034;2023-04-28T16:38:44;94963.06;;;14.62;35.08
7990;BME280;4040;42.848;23.034;2023-04-28T16:48:56;94955.75;;;14.43;35.12
7990;BME280;4040;42.848;23.034;2023-04-28T16:54:45;94953.78;;;14.27;34.52
7990;BME280;4040;42.848;23.034;2023-04-28T17:00:34;94932.03;;;13.95;34.83
7990;BME280;4040;42.848;23.034;2023-04-28T17:06:24;94968.41;;;13.94;35.29
7990;BME280;4040;42.848;23.034;2023-04-28T17:12:14;94970.44;;;13.71;35.60
7990;BME280;4040;42.848;23.034;2023-04-28T17:18:03;94976.41;;;13.43;36.63
7990;BME280;4040;42.848;23.034;2023-04-28T17:23:54;94972.56;;;13.40;36.29
7990;BME280;4040;42.848;23.034;2023-04-28T17:29:43;94930.34;;;12.81;36.66
7990;BME280;4040;42.848;23.034;2023-04-28T17:35:32;94984.31;;;13.11;36.78
7990;BME280;4040;42.848;23.034;2023-04-28T17:41:22;94985.66;;;12.99;37.08
7990;BME280;4040;42.848;23.034;2023-04-28T17:51:32;95003.63;;;12.86;37.65
7990;BME280;4040;42.848;23.034;2023-04-28T17:57:23;95011.84;;;12.53;39.91
7990;BME280;4040;42.848;23.034;2023-04-28T18:03:12;95017.25;;;11.97;41.81
7990;BME280;4040;42.848;23.034;2023-04-28T18:09:01;95025.63;;;11.35;44.21
7990;BME280;4040;42.848;23.034;2023-04-28T18:14:51;95027.34;;;11.15;44.85
7990;BME280;4040;42.848;23.034;2023-04-28T18:20:40;95036.47;;;10.84;46.00
7990;BME280;4040;42.848;23.034;2023-04-28T18:26:29;95027.06;;;10.52;46.50
7990;BME280;4040;42.848;23.034;2023-04-28T18:32:19;95043.28;;;10.48;46.18
7990;BME280;4040;42.848;23.034;2023-04-28T18:38:08;95047.56;;;10.35;46.38
7990;BME280;4040;42.848;23.034;2023-04-28T18:43:57;95043.00;;;10.25;45.90
7990;BME280;4040;42.848;23.034;2023-04-28T18:54:09;95062.16;;;9.03;54.31
7990;BME280;4040;42.848;23.034;2023-04-28T18:59:57;95077.50;;;8.89;53.41
7990;BME280;4040;42.848;23.034;2023-04-28T19:05:47;95071.38;;;8.78;54.50
7990;BME280;4040;42.848;23.034;2023-04-28T19:11:37;95071.00;;;8.76;56.25
7990;BME280;4040;42.848;23.034;2023-04-28T19:17:26;95069.81;;;8.70;57.25
7990;BME280;4040;42.848;23.034;2023-04-28T19:23:15;95075.16;;;8.49;62.75
7990;BME280;4040;42.848;23.034;2023-04-28T19:29:06;95077.34;;;8.12;61.66
7990;BME280;4040;42.848;23.034;2023-04-28T19:34:54;95063.31;;;7.54;61.23
7990;BME280;4040;42.848;23.034;2023-04-28T19:40:43;95077.72;;;7.32;65.31
7990;BME280;4040;42.848;23.034;2023-04-28T19:46:33;95075.97;;;6.96;69.88
7990;BME280;4040;42.848;23.034;2023-04-28T19:56:45;95079.53;;;6.67;77.38
7990;BME280;4040;42.848;23.034;2023-04-28T20:02:35;95072.25;;;6.24;81.33
7990;BME280;4040;42.848;23.034;2023-04-28T20:08:24;95080.00;;;6.36;83.11
7990;BME280;4040;42.848;23.034;2023-04-28T20:14:13;95077.06;;;6.48;85.25
7990;BME280;4040;42.848;23.034;2023-04-28T20:20:05;95070.06;;;6.33;88.29
7990;BME280;4040;42.848;23.034;2023-04-28T20:25:53;95069.09;;;6.15;86.53
7990;BME280;4040;42.848;23.034;2023-04-28T20:31:42;95066.34;;;6.08;89.75
7990;BME280;4040;42.848;23.034;2023-04-28T20:37:33;95070.25;;;5.81;92.86
7990;BME280;4040;42.848;23.034;2023-04-28T20:43:21;95056.28;;;5.65;95.06
7990;BME280;4040;42.848;23.034;2023-04-28T20:49:10;95063.72;;;5.49;96.44
7990;BME280;4040;42.848;23.034;2023-04-28T20:59:22;95055.44;;;5.28;100.00
7990;BME280;4040;42.848;23.034;2023-04-28T21:05:12;95068.69;;;5.21;100.00
7990;BME280;4040;42.848;23.034;2023-04-28T21:11:00;95064.44;;;4.91;100.00
7990;BME280;4040;42.848;23.034;2023-04-28T21:16:51;95069.47;;;4.74;100.00
7990;BME280;4040;42.848;23.034;2023-04-28T21:22:39;95064.50;;;4.50;100.00
7990;BME280;4040;42.848;23.034;2023-04-28T21:28:28;95062.97;;;4.26;100.00
7990;BME280;4040;42.848;23.034;2023-04-28T21:34:21;95068.78;;;4.32;100.00
7990;BME280;4040;42.848;23.034;2023-04-28T21:40:10;95066.31;;;4.65;100.00
7990;BME280;4040;42.848;23.034;2023-04-28T21:45:59;95063.09;;;4.56;100.00
7990;BME280;4040;42.848;23.034;2023-04-28T21:51:49;95060.53;;;4.63;100.00
7990;BME280;4040;42.848;23.034;2023-04-28T22:08:29;95062.09;;;4.00;100.00
7990;BME280;4040;42.848;23.034;2023-04-28T22:14:18;95039.84;;;3.70;100.00
7990;BME280;4040;42.848;23.034;2023-04-28T22:20:07;95045.72;;;3.79;100.00
7990;BME280;4040;42.848;23.034;2023-04-28T22:25:58;95041.13;;;3.76;100.00
7990;BME280;4040;42.848;23.034;2023-04-28T22:31:47;95039.28;;;3.80;100.00
7990;BME280;4040;42.848;23.034;2023-04-28T22:37:36;95025.00;;;3.69;100.00
7990;BME280;4040;42.848;23.034;2023-04-28T22:43:26;95030.03;;;3.74;100.00
7990;BME280;4040;42.848;23.034;2023-04-28T22:49:15;95034.25;;;3.75;100.00
7990;BME280;4040;42.848;23.034;2023-04-28T22:55:07;95025.13;;;3.76;100.00
7990;BME280;4040;42.848;23.034;2023-04-28T23:01:00;95013.75;;;3.79;100.00
7990;BME280;4040;42.848;23.034;2023-04-28T23:06:50;95014.13;;;3.77;100.00
7990;BME280;4040;42.848;23.034;2023-04-28T23:12:39;95001.97;;;3.57;100.00
7990;BME280;4040;42.848;23.034;2023-04-28T23:18:31;94992.38;;;3.34;100.00
7990;BME280;4040;42.848;23.034;2023-04-28T23:24:20;94986.34;;;3.37;100.00
7990;BME280;4040;42.848;23.034;2023-04-28T23:30:10;94989.56;;;3.46;100.00
7990;BME280;4040;42.848;23.034;2023-04-28T23:36:00;94981.94;;;3.44;100.00
7990;BME280;4040;42.848;23.034;2023-04-28T23:41:49;94979.31;;;3.67;100.00
7990;BME280;4040;42.848;23.034;2023-04-28T23:47:38;94983.41;;;3.83;100.00
7990;BME280;4040;42.848;23.034;2023-04-28T23:53:29;94986.31;;;3.75;100.00
7990;BME280;4040;42.848;23.034;2023-04-28T23:59:18;94985.41;;;3.67;100.00
